createdAt,value
2022-11-21T00:05:58.719Z,1.2
2022-11-21T00:21:08.151Z,1.3
2022-11-21T00:36:17.615Z,1.3
2022-11-21T00:51:26.401Z,1.2
2022-11-21T01:06:34.759Z,1.2
2022-11-21T01:21:44.309Z,1.1
2022-11-21T01:36:54.067Z,1
2022-11-21T01:52:03.631Z,1
2022-11-21T02:07:13.263Z,0.9
2022-11-21T02:22:23.090Z,0.8
2022-11-21T02:37:32.820Z,0.6
2022-11-21T02:53:09.497Z,0.6
2022-11-21T03:08:19.268Z,0.3
2022-11-21T03:23:29.028Z,0.2
2022-11-21T03:38:38.257Z,0
2022-11-21T03:53:47.775Z,-0.1
2022-11-21T04:08:56.612Z,-0.2
2022-11-21T04:24:05.674Z,-0.3
2022-11-21T04:39:15.319Z,-0.4
2022-11-21T04:54:24.381Z,-0.4
2022-11-21T05:09:34.457Z,-0.6
2022-11-21T05:24:43.085Z,-0.9
2022-11-21T05:39:52.154Z,-1
2022-11-21T05:55:03.111Z,-1
2022-11-21T06:10:12.657Z,-1.1
2022-11-21T06:25:21.673Z,-1.2
2022-11-21T06:40:31.171Z,-1.2
2022-11-21T06:55:46.807Z,-1.2
2022-11-21T07:11:22.847Z,-1.2
2022-11-21T07:26:41.630Z,-1.2
2022-11-21T07:41:50.835Z,-1.3
2022-11-21T07:56:59.630Z,-1.2
2022-11-21T08:12:09.097Z,-1
2022-11-21T08:27:18.581Z,-0.9
2022-11-21T08:42:28.029Z,-0.9
2022-11-21T08:57:43.305Z,-0.8
2022-11-21T09:12:53.042Z,-0.6
2022-11-21T09:28:04.031Z,-0.5
2022-11-21T09:43:13.617Z,-0.2
2022-11-21T09:58:23.141Z,0
2022-11-21T10:13:32.787Z,0.3
2022-11-21T10:30:27.398Z,1.2
2022-11-21T10:45:38.335Z,0.9
2022-11-21T11:00:47.958Z,1.2
2022-11-21T11:15:58.403Z,1.5
2022-11-21T11:31:10.440Z,1.7
2022-11-21T11:46:20.865Z,2.1
2022-11-21T12:01:34.217Z,2.5
2022-11-21T12:16:43.968Z,3
2022-11-21T12:31:53.878Z,3.2
2022-11-21T12:47:09.142Z,3.5
2022-11-21T13:02:18.845Z,3.3
2022-11-21T13:17:27.781Z,3.1
2022-11-21T13:32:37.044Z,2.9
2022-11-21T13:47:51.242Z,2.7
2022-11-21T14:03:06.967Z,2.5
2022-11-21T14:18:16.448Z,2.3
2022-11-21T14:33:25.981Z,2.1
2022-11-21T14:48:35.660Z,2
2022-11-21T15:03:45.123Z,1.8
2022-11-21T15:18:59.050Z,1.7
2022-11-21T15:49:48.501Z,1.4
2022-11-21T16:04:57.731Z,1.2
2022-11-21T16:20:07.662Z,1.1
2022-11-21T16:35:16.869Z,1.2
2022-11-21T16:50:26.470Z,1.3
2022-11-21T17:05:35.736Z,1.3
2022-11-21T17:20:44.736Z,1.4
2022-11-21T17:35:54.425Z,1.3
2022-11-21T17:51:04.515Z,1.2
2022-11-21T18:06:13.848Z,1.1
2022-11-21T18:21:23.372Z,1
2022-11-21T18:36:32.566Z,1
2022-11-21T18:51:41.736Z,1
2022-11-21T19:06:51.683Z,1
2022-11-21T19:22:01.280Z,1.1
2022-11-21T19:37:11.183Z,1.3
2022-11-21T19:52:24.979Z,1.5
2022-11-21T20:07:38.059Z,1.6
2022-11-21T20:22:48.252Z,1.7
2022-11-21T20:37:57.913Z,1.8
2022-11-21T21:09:12.871Z,1.9
2022-11-21T21:24:22.586Z,1.9
2022-11-21T21:39:31.934Z,1.8
2022-11-21T21:54:41.053Z,1.8
2022-11-21T22:09:50.325Z,1.8
2022-11-21T22:24:59.548Z,1.8
2022-11-21T22:40:08.602Z,1.8
2022-11-21T22:55:18.221Z,1.7
2022-11-21T23:10:27.759Z,1.6
2022-11-21T23:25:37.427Z,1.6
2022-11-21T23:40:46.895Z,1.6
2022-11-21T23:55:56.416Z,1.6
